Time;durP1;ratioP1;P1;durP2;ratioP2;P2;SDS_P1;SDS_P2;PMS_P1;PMS_P2;Temp;Humidity;BMP_temperature;BMP_pressure;BME280_temperature;BME280_humidity;BME280_pressure;Samples;Min_cycle;Max_cycle;Signal;HPM_P1;HPM_P2
2021/12/16 19:08:48;;;;;;;26.23;15.43;;;;;;;;;;4216508;26;21022;-86
2021/12/16 19:11:28;;;;;;;22.50;13.53;;;;;;;;;;5000852;28;20555;-86
2021/12/16 19:14:00;;;;;;;21.53;11.70;;;;;;;;;;5016149;28;20459;-86
2021/12/16 19:16:35;;;;;;;27.00;14.03;;;;;;;;;;4988320;28;21005;-86
2021/12/16 19:19:02;;;;;;;30.80;17.73;;;;;;;;;;4988673;28;20439;-86
2021/12/16 19:21:37;;;;;;;22.50;12.77;;;;;;;;;;5006584;28;20420;-86
2021/12/16 19:24:21;;;;;;;23.63;15.33;;;;;;;;;;4988428;28;20640;-86
2021/12/16 19:27:07;;;;;;;;;;;;;;;;;;;;;
2021/12/16 19:29:37;;;;;;;20.80;13.23;;;;;;;;;;4986620;28;20451;-86
2021/12/16 19:32:04;;;;;;;19.13;12.97;;;;;;;;;;4969551;28;20461;-86
2021/12/16 19:34:31;;;;;;;28.07;14.63;;;;;;;;;;4968277;28;20449;-86
2021/12/16 19:36:57;;;;;;;24.93;15.83;;;;;;;;;;4974157;28;20463;-86
2021/12/16 19:39:26;;;;;;;23.13;13.70;;;;;;;;;;4988399;28;20511;-86
2021/12/16 19:41:55;;;;;;;31.37;18.57;;;;;;;;;;4988302;28;20436;-86
2021/12/16 19:44:23;;;;;;;31.33;18.70;;;;;;;;;;4987999;28;20464;-86
2021/12/16 19:46:49;;;;;;;33.47;19.40;;;;;;;;;;4987467;28;20420;-86
2021/12/16 19:49:18;;;;;;;45.13;22.30;;;;;;;;;;4987955;28;20439;-86
2021/12/16 19:52:12;;;;;;;56.33;22.10;;;3.60;99.20;;;;;;5005619;28;20417;-86
2021/12/16 19:54:41;;;;;;;40.93;21.30;;;;;;;;;;4993975;28;20543;-86
2021/12/16 19:57:11;;;;;;;42.87;20.97;;;;;;;;;;4987746;28;20457;-86
2021/12/16 20:00:01;;;;;;;44.20;22.47;;;;;;;;;;4988022;28;20452;-86
2021/12/16 20:02:42;;;;;;;40.63;21.47;;;;;;;;;;4988436;28;20428;-87
2021/12/16 20:05:09;;;;;;;44.70;21.57;;;;;;;;;;5005951;28;21006;-87
2021/12/16 20:07:40;;;;;;;46.20;25.63;;;;;;;;;;4987183;28;20487;-86
2021/12/16 20:10:28;;;;;;;48.13;25.33;;;;;;;;;;4969000;28;20458;-87
2021/12/16 20:13:00;;;;;;;33.63;19.00;;;;;;;;;;4977983;28;20467;-86
2021/12/16 20:15:38;;;;;;;31.07;16.80;;;;;;;;;;4983280;28;20468;-86
2021/12/16 20:21:11;;;;;;;24.00;16.30;;;;;;;;;;4992270;28;20911;-86
2021/12/16 20:23:43;;;;;;;29.37;15.70;;;;;;;;;;4992072;28;20579;-86
2021/12/16 20:26:18;;;;;;;26.10;16.60;;;;;;;;;;4991808;28;20418;-86
2021/12/16 20:28:53;;;;;;;31.70;17.00;;;;;;;;;;4974289;28;20944;-86
2021/12/16 20:31:40;;;;;;;30.97;17.70;;;;;;;;;;4974231;28;20391;-86
2021/12/16 20:34:14;;;;;;;33.57;18.47;;;;;;;;;;4990722;28;20475;-86
2021/12/16 20:36:53;;;;;;;;;;;;;;;;;;;;;
2021/12/16 20:39:45;;;;;;;35.37;19.00;;;;;;;;;;4991974;28;20947;-86
2021/12/16 20:42:29;;;;;;;31.20;18.03;;;;;;;;;;4973586;28;20449;-86
2021/12/16 20:45:25;;;;;;;36.60;18.13;;;;;;;;;;4974854;28;20933;-86
2021/12/16 20:48:07;;;;;;;35.30;19.40;;;;;;;;;;4928956;28;20398;-86
2021/12/16 20:50:45;;;;;;;37.00;19.87;;;;;;;;;;4973371;28;20424;-86
2021/12/16 20:53:11;;;;;;;38.47;18.80;;;;;;;;;;4973930;28;20409;-86
2021/12/16 20:58:35;;;;;;;34.03;18.20;;;;;;;;;;4992096;28;20462;-86
2021/12/16 21:01:23;;;;;;;49.47;16.80;;;;;;;;;;4974571;28;20388;-87
2021/12/16 21:04:15;;;;;;;38.13;19.07;;;;;;;;;;4991356;28;20455;-86
2021/12/16 21:06:58;;;;;;;22.27;15.13;;;;;;;;;;4985268;28;20432;-86
2021/12/16 21:12:28;;;;;;;32.30;18.17;;;;;;;;;;4986979;28;20492;-86
2021/12/16 21:14:56;;;;;;;36.20;19.90;;;;;;;;;;5016140;23;20543;-86
2021/12/16 21:17:36;;;;;;;33.83;19.60;;;;;;;;;;5044609;28;20411;-86
2021/12/16 21:20:24;;;;;;;37.53;18.83;;;;;;;;;;5050967;28;20369;-86
2021/12/16 21:22:52;;;;;;;37.00;19.87;;;;;;;;;;5047962;28;20725;-86
2021/12/16 21:25:28;;;;;;;37.00;20.47;;;;;;;;;;5033347;28;20481;-86
2021/12/16 21:28:16;;;;;;;37.27;21.53;;;;;;;;;;5049641;28;20429;-86
2021/12/16 21:30:45;;;;;;;36.60;18.83;;;;;;;;;;5050306;28;20457;-86
2021/12/16 21:33:24;;;;;;;;;;;;;;;;;;;;;
2021/12/16 21:40:47;;;;;;;53.07;20.67;;;;;;;;;;5086287;27;20562;-84
2021/12/16 21:43:19;;;;;;;37.80;20.93;;;;;;;;;;5082722;28;20436;-84
2021/12/16 21:45:55;;;;;;;49.40;21.83;;;;;;;;;;5072307;28;20518;-86
2021/12/16 21:48:52;;;;;;;42.10;20.63;;;;;;;;;;5077023;28;20403;-86
2021/12/16 21:51:29;;;;;;;42.83;22.50;;;;;;;;;;5085084;28;20380;-84
2021/12/16 21:53:58;;;;;;;47.73;21.27;;;;;;;;;;5075344;28;20488;-84
2021/12/16 21:59:16;;;;;;;48.20;22.70;;;;;;;;;;5082715;28;20500;-86
2021/12/16 22:01:48;;;;;;;43.80;23.87;;;;;;;;;;5080200;28;20410;-86
2021/12/16 22:04:14;;;;;;;42.43;20.87;;;;;;;;;;5064816;28;20412;-86
2021/12/16 22:06:43;;;;;;;33.80;20.57;;;;;;;;;;5065011;28;20406;-87
2021/12/16 22:09:15;;;;;;;35.27;21.40;;;;;;;;;;5078875;28;20421;-86
2021/12/16 22:12:00;;;;;;;36.27;20.77;;;;;;;;;;5078429;28;20401;-86
2021/12/16 22:14:39;;;;;;;;;;;;;;;;;;;;;
2021/12/16 22:17:08;;;;;;;30.17;19.60;;;;;;;;;;5085795;28;20830;-85
2021/12/16 22:19:34;;;;;;;38.57;20.97;;;;;;;;;;5066626;28;20914;-85
2021/12/16 22:22:07;;;;;;;36.53;20.50;;;;;;;;;;5064199;28;20411;-85
2021/12/16 22:24:55;;;;;;;36.67;20.70;;;;;;;;;;5064015;22;20473;-84
2021/12/16 22:27:24;;;;;;;40.67;20.80;;;;;;;;;;5038800;28;20927;-84
2021/12/16 22:29:50;;;;;;;38.87;18.83;;;;;;;;;;5035721;28;20397;-84
2021/12/16 22:32:48;;;;;;;38.60;20.40;;;;;;;;;;5035313;28;20412;-84
2021/12/16 22:35:16;;;;;;;37.70;18.50;;;;;;;;;;4974126;28;20441;-84
2021/12/16 22:37:42;;;;;;;38.03;19.50;;;;;;;;;;4970805;28;20901;-84
2021/12/16 22:40:14;;;;;;;38.07;21.83;;;;;;;;;;5027155;28;20545;-84
2021/12/16 22:42:43;;;;;;;38.93;20.67;;;;;;;;;;5044120;28;20407;-85
2021/12/16 22:45:10;;;;;;;39.50;22.07;;;;;;;;;;5043709;28;20417;-84
2021/12/16 22:47:36;;;;;;;40.70;22.30;;;;;;;;;;5041817;28;20448;-84
2021/12/16 22:50:04;;;;;;;38.80;21.03;;;;;;;;;;5039526;28;20529;-86
2021/12/16 22:52:30;;;;;;;45.33;21.20;;;;;;;;;;5031129;28;20382;-85
2021/12/16 22:54:56;;;;;;;45.43;22.40;;;;;;;;;;5028265;28;21004;-84
2021/12/16 22:57:22;;;;;;;47.87;22.20;;;;;;;;;;5028830;28;20401;-84
2021/12/16 22:59:54;;;;;;;49.17;21.70;;;;;;;;;;5027990;28;20788;-84
2021/12/16 23:02:21;;;;;;;38.40;20.23;;;;;;;;;;5030980;28;20430;-84
2021/12/16 23:04:48;;;;;;;55.93;21.37;;;;;;;;;;5030414;28;20929;-84
2021/12/16 23:07:20;;;;;;;40.30;21.87;;;;;;;;;;5030488;28;20447;-85
2021/12/16 23:09:49;;;;;;;43.33;22.60;;;;;;;;;;5026158;28;20498;-84
2021/12/16 23:12:16;;;;;;;35.53;19.70;;;;;;;;;;5030396;28;20426;-84
2021/12/16 23:14:52;;;;;;;51.50;22.83;;;;;;;;;;5030096;28;20446;-84
2021/12/16 23:17:48;;;;;;;42.77;23.00;;;;;;;;;;5027599;28;20413;-85
2021/12/16 23:23:31;;;;;;;46.27;22.37;;;;;;;;;;5029356;28;20843;-83
2021/12/16 23:26:07;;;;;;;38.60;20.70;;;;;;;;;;5027730;28;20427;-84
2021/12/16 23:28:59;;;;;;;42.97;21.90;;;;;;;;;;5025548;28;20414;-83
2021/12/16 23:31:25;;;;;;;41.23;20.90;;;;;;;;;;4990581;28;21080;-83
2021/12/16 23:34:02;;;;;;;40.50;21.23;;;;;;;;;;5028650;28;20442;-83
2021/12/16 23:36:31;;;;;;;49.87;21.67;;;;;;;;;;5026584;28;20437;-83
2021/12/16 23:39:01;;;;;;;40.63;20.10;;;;;;;;;;5029379;28;20554;-83
2021/12/16 23:47:18;;;;;;;42.67;21.17;;;;;;;;;;5078739;28;20402;-83
2021/12/16 23:55:18;;;;;;;46.67;22.90;;;;;;;;;;5070929;28;20566;-83
2021/12/16 23:57:45;;;;;;;46.03;23.20;;;;;;;;;;5061633;28;20413;-83
